sensor_id;sensor_type;location;lat;lon;timestamp;P1;durP1;ratioP1;P2;durP2;ratioP2
3801;SDS011;1916;51.798;12.246;2022-10-31T00:00:28;33.17;;;14.67;;
3801;SDS011;1916;51.798;12.246;2022-10-31T00:02:31;23.53;;;14.67;;
3801;SDS011;1916;51.798;12.246;2022-10-31T00:04:33;26.57;;;14.70;;
3801;SDS011;1916;51.798;12.246;2022-10-31T00:06:35;22.50;;;14.60;;
3801;SDS011;1916;51.798;12.246;2022-10-31T00:08:37;30.47;;;16.07;;
3801;SDS011;1916;51.798;12.246;2022-10-31T00:10:39;23.73;;;16.87;;
3801;SDS011;1916;51.798;12.246;2022-10-31T00:12:42;24.07;;;15.00;;
3801;SDS011;1916;51.798;12.246;2022-10-31T00:14:44;22.10;;;15.33;;
3801;SDS011;1916;51.798;12.246;2022-10-31T00:16:46;26.13;;;15.03;;
3801;SDS011;1916;51.798;12.246;2022-10-31T00:18:49;22.73;;;14.00;;
3801;SDS011;1916;51.798;12.246;2022-10-31T00:21:01;18.93;;;14.10;;
3801;SDS011;1916;51.798;12.246;2022-10-31T00:23:04;25.27;;;13.23;;
3801;SDS011;1916;51.798;12.246;2022-10-31T00:25:07;20.87;;;15.20;;
3801;SDS011;1916;51.798;12.246;2022-10-31T00:27:09;20.53;;;12.30;;
3801;SDS011;1916;51.798;12.246;2022-10-31T00:29:11;22.87;;;13.80;;
3801;SDS011;1916;51.798;12.246;2022-10-31T00:31:14;22.10;;;13.83;;
3801;SDS011;1916;51.798;12.246;2022-10-31T00:33:16;26.20;;;14.93;;
3801;SDS011;1916;51.798;12.246;2022-10-31T00:35:19;27.83;;;14.63;;
3801;SDS011;1916;51.798;12.246;2022-10-31T00:37:21;24.30;;;13.27;;
3801;SDS011;1916;51.798;12.246;2022-10-31T00:39:23;19.83;;;14.07;;
3801;SDS011;1916;51.798;12.246;2022-10-31T00:41:25;18.10;;;14.00;;
3801;SDS011;1916;51.798;12.246;2022-10-31T00:43:27;22.60;;;13.60;;
3801;SDS011;1916;51.798;12.246;2022-10-31T00:45:30;19.37;;;12.90;;
3801;SDS011;1916;51.798;12.246;2022-10-31T00:47:32;24.57;;;12.70;;
3801;SDS011;1916;51.798;12.246;2022-10-31T00:49:34;18.33;;;13.77;;
3801;SDS011;1916;51.798;12.246;2022-10-31T00:51:38;15.63;;;12.63;;
3801;SDS011;1916;51.798;12.246;2022-10-31T00:53:40;20.53;;;12.80;;
3801;SDS011;1916;51.798;12.246;2022-10-31T00:55:42;22.33;;;13.00;;
3801;SDS011;1916;51.798;12.246;2022-10-31T00:57:47;21.90;;;14.27;;
3801;SDS011;1916;51.798;12.246;2022-10-31T00:59:50;24.73;;;13.80;;
3801;SDS011;1916;51.798;12.246;2022-10-31T01:01:52;22.90;;;14.43;;
3801;SDS011;1916;51.798;12.246;2022-10-31T01:03:55;26.53;;;14.63;;
3801;SDS011;1916;51.798;12.246;2022-10-31T01:08:06;19.53;;;14.37;;
3801;SDS011;1916;51.798;12.246;2022-10-31T01:10:09;23.70;;;14.17;;
3801;SDS011;1916;51.798;12.246;2022-10-31T01:12:12;25.87;;;14.57;;
3801;SDS011;1916;51.798;12.246;2022-10-31T01:14:14;29.53;;;14.50;;
3801;SDS011;1916;51.798;12.246;2022-10-31T01:16:17;25.87;;;14.43;;
3801;SDS011;1916;51.798;12.246;2022-10-31T01:18:20;25.33;;;15.10;;
3801;SDS011;1916;51.798;12.246;2022-10-31T01:20:24;20.83;;;14.20;;
3801;SDS011;1916;51.798;12.246;2022-10-31T01:22:27;20.70;;;14.43;;
3801;SDS011;1916;51.798;12.246;2022-10-31T01:24:33;27.83;;;13.13;;
3801;SDS011;1916;51.798;12.246;2022-10-31T01:26:36;26.40;;;13.57;;
3801;SDS011;1916;51.798;12.246;2022-10-31T01:28:40;18.17;;;13.67;;
3801;SDS011;1916;51.798;12.246;2022-10-31T01:30:52;26.37;;;16.40;;
3801;SDS011;1916;51.798;12.246;2022-10-31T01:32:54;25.70;;;14.37;;
3801;SDS011;1916;51.798;12.246;2022-10-31T01:34:56;23.53;;;13.43;;
3801;SDS011;1916;51.798;12.246;2022-10-31T01:36:58;20.93;;;13.40;;
3801;SDS011;1916;51.798;12.246;2022-10-31T01:39:02;22.73;;;14.10;;
3801;SDS011;1916;51.798;12.246;2022-10-31T01:41:06;23.13;;;13.90;;
3801;SDS011;1916;51.798;12.246;2022-10-31T01:43:12;21.00;;;14.00;;
3801;SDS011;1916;51.798;12.246;2022-10-31T01:45:15;22.13;;;13.30;;
3801;SDS011;1916;51.798;12.246;2022-10-31T01:47:19;22.20;;;12.93;;
3801;SDS011;1916;51.798;12.246;2022-10-31T01:51:34;23.30;;;13.40;;
3801;SDS011;1916;51.798;12.246;2022-10-31T01:53:38;28.20;;;12.63;;
3801;SDS011;1916;51.798;12.246;2022-10-31T01:55:42;22.73;;;13.13;;
3801;SDS011;1916;51.798;12.246;2022-10-31T01:57:51;24.73;;;13.50;;
3801;SDS011;1916;51.798;12.246;2022-10-31T01:59:57;24.97;;;12.80;;
3801;SDS011;1916;51.798;12.246;2022-10-31T02:02:14;20.47;;;13.20;;
3801;SDS011;1916;51.798;12.246;2022-10-31T02:04:17;25.67;;;14.10;;
3801;SDS011;1916;51.798;12.246;2022-10-31T02:08:35;19.73;;;12.83;;
3801;SDS011;1916;51.798;12.246;2022-10-31T02:10:38;23.07;;;12.57;;
3801;SDS011;1916;51.798;12.246;2022-10-31T02:12:42;16.73;;;12.80;;
3801;SDS011;1916;51.798;12.246;2022-10-31T02:14:44;23.53;;;13.20;;
3801;SDS011;1916;51.798;12.246;2022-10-31T02:16:46;15.97;;;11.97;;
3801;SDS011;1916;51.798;12.246;2022-10-31T02:18:48;20.33;;;13.17;;
3801;SDS011;1916;51.798;12.246;2022-10-31T02:29:50;19.20;;;11.50;;
3801;SDS011;1916;51.798;12.246;2022-10-31T02:32:20;19.20;;;11.97;;
3801;SDS011;1916;51.798;12.246;2022-10-31T02:36:38;18.27;;;11.60;;
3801;SDS011;1916;51.798;12.246;2022-10-31T02:38:54;27.53;;;13.27;;
3801;SDS011;1916;51.798;12.246;2022-10-31T02:43:31;19.80;;;12.10;;
3801;SDS011;1916;51.798;12.246;2022-10-31T02:45:48;23.50;;;12.27;;
3801;SDS011;1916;51.798;12.246;2022-10-31T02:47:53;19.80;;;12.50;;
3801;SDS011;1916;51.798;12.246;2022-10-31T02:50:04;19.20;;;12.23;;
3801;SDS011;1916;51.798;12.246;2022-10-31T02:52:29;16.40;;;10.90;;
3801;SDS011;1916;51.798;12.246;2022-10-31T02:54:37;17.53;;;11.70;;
3801;SDS011;1916;51.798;12.246;2022-10-31T02:56:39;13.63;;;10.60;;
3801;SDS011;1916;51.798;12.246;2022-10-31T02:58:42;15.17;;;10.53;;
3801;SDS011;1916;51.798;12.246;2022-10-31T03:05:40;18.33;;;11.13;;
3801;SDS011;1916;51.798;12.246;2022-10-31T03:08:01;18.73;;;10.37;;
3801;SDS011;1916;51.798;12.246;2022-10-31T03:12:26;17.23;;;11.40;;
3801;SDS011;1916;51.798;12.246;2022-10-31T03:16:40;16.30;;;9.97;;
3801;SDS011;1916;51.798;12.246;2022-10-31T03:18:49;20.27;;;10.97;;
3801;SDS011;1916;51.798;12.246;2022-10-31T03:21:00;18.13;;;10.00;;
3801;SDS011;1916;51.798;12.246;2022-10-31T03:23:10;16.83;;;10.60;;
3801;SDS011;1916;51.798;12.246;2022-10-31T03:25:15;14.43;;;9.60;;
3801;SDS011;1916;51.798;12.246;2022-10-31T03:27:20;21.20;;;12.17;;
3801;SDS011;1916;51.798;12.246;2022-10-31T03:29:26;17.30;;;11.80;;
3801;SDS011;1916;51.798;12.246;2022-10-31T03:31:32;18.40;;;10.73;;
3801;SDS011;1916;51.798;12.246;2022-10-31T03:33:40;22.20;;;10.70;;
3801;SDS011;1916;51.798;12.246;2022-10-31T03:35:44;21.60;;;10.77;;
3801;SDS011;1916;51.798;12.246;2022-10-31T03:37:49;18.53;;;11.50;;
3801;SDS011;1916;51.798;12.246;2022-10-31T03:39:51;16.53;;;11.20;;
3801;SDS011;1916;51.798;12.246;2022-10-31T03:42:00;13.77;;;9.57;;
3801;SDS011;1916;51.798;12.246;2022-10-31T03:44:08;17.90;;;10.23;;
3801;SDS011;1916;51.798;12.246;2022-10-31T03:46:14;16.73;;;9.97;;
3801;SDS011;1916;51.798;12.246;2022-10-31T03:48:18;16.33;;;11.23;;
3801;SDS011;1916;51.798;12.246;2022-10-31T03:50:23;16.90;;;10.40;;
3801;SDS011;1916;51.798;12.246;2022-10-31T03:54:53;21.57;;;9.97;;
3801;SDS011;1916;51.798;12.246;2022-10-31T03:59:30;19.57;;;10.73;;
3801;SDS011;1916;51.798;12.246;2022-10-31T04:01:37;20.90;;;9.83;;
3801;SDS011;1916;51.798;12.246;2022-10-31T04:03:42;18.40;;;11.60;;
3801;SDS011;1916;51.798;12.246;2022-10-31T04:05:46;14.50;;;10.43;;
3801;SDS011;1916;51.798;12.246;2022-10-31T04:07:50;19.70;;;10.90;;
3801;SDS011;1916;51.798;12.246;2022-10-31T04:09:54;16.77;;;10.77;;
3801;SDS011;1916;51.798;12.246;2022-10-31T04:11:57;14.17;;;9.20;;
3801;SDS011;1916;51.798;12.246;2022-10-31T04:14:09;17.60;;;10.67;;
3801;SDS011;1916;51.798;12.246;2022-10-31T04:16:13;14.43;;;10.87;;
3801;SDS011;1916;51.798;12.246;2022-10-31T04:18:18;19.20;;;10.30;;
3801;SDS011;1916;51.798;12.246;2022-10-31T04:20:35;17.87;;;11.23;;
3801;SDS011;1916;51.798;12.246;2022-10-31T04:22:39;15.00;;;9.93;;
3801;SDS011;1916;51.798;12.246;2022-10-31T04:24:41;17.00;;;9.67;;
3801;SDS011;1916;51.798;12.246;2022-10-31T04:26:48;16.50;;;10.67;;
3801;SDS011;1916;51.798;12.246;2022-10-31T04:28:50;15.00;;;9.87;;
3801;SDS011;1916;51.798;12.246;2022-10-31T04:30:52;18.33;;;11.17;;
3801;SDS011;1916;51.798;12.246;2022-10-31T04:32:56;18.20;;;10.10;;
3801;SDS011;1916;51.798;12.246;2022-10-31T04:34:59;15.47;;;10.30;;
3801;SDS011;1916;51.798;12.246;2022-10-31T04:37:03;14.77;;;9.20;;
3801;SDS011;1916;51.798;12.246;2022-10-31T04:39:06;16.50;;;10.30;;
3801;SDS011;1916;51.798;12.246;2022-10-31T04:41:16;14.83;;;9.90;;
3801;SDS011;1916;51.798;12.246;2022-10-31T04:43:27;17.57;;;11.60;;
3801;SDS011;1916;51.798;12.246;2022-10-31T04:45:29;15.13;;;10.33;;
3801;SDS011;1916;51.798;12.246;2022-10-31T04:47:32;14.17;;;10.93;;
3801;SDS011;1916;51.798;12.246;2022-10-31T04:49:35;17.23;;;12.20;;
3801;SDS011;1916;51.798;12.246;2022-10-31T04:51:38;18.97;;;11.23;;
3801;SDS011;1916;51.798;12.246;2022-10-31T04:53:40;14.43;;;10.23;;
3801;SDS011;1916;51.798;12.246;2022-10-31T04:56:02;18.00;;;10.27;;
3801;SDS011;1916;51.798;12.246;2022-10-31T04:58:15;17.17;;;9.70;;
3801;SDS011;1916;51.798;12.246;2022-10-31T05:00:23;15.90;;;9.90;;
3801;SDS011;1916;51.798;12.246;2022-10-31T05:02:25;16.83;;;9.43;;
3801;SDS011;1916;51.798;12.246;2022-10-31T05:04:30;12.03;;;8.43;;
3801;SDS011;1916;51.798;12.246;2022-10-31T05:06:32;15.10;;;10.03;;
3801;SDS011;1916;51.798;12.246;2022-10-31T05:08:35;15.00;;;9.60;;
3801;SDS011;1916;51.798;12.246;2022-10-31T05:10:40;20.53;;;9.37;;
3801;SDS011;1916;51.798;12.246;2022-10-31T05:12:49;17.07;;;9.07;;
3801;SDS011;1916;51.798;12.246;2022-10-31T05:15:11;10.77;;;8.03;;
3801;SDS011;1916;51.798;12.246;2022-10-31T05:17:32;12.63;;;8.50;;
3801;SDS011;1916;51.798;12.246;2022-10-31T05:19:57;16.43;;;9.00;;
3801;SDS011;1916;51.798;12.246;2022-10-31T05:22:24;12.03;;;8.33;;
3801;SDS011;1916;51.798;12.246;2022-10-31T05:24:27;15.03;;;8.63;;
3801;SDS011;1916;51.798;12.246;2022-10-31T05:26:29;22.40;;;11.40;;
3801;SDS011;1916;51.798;12.246;2022-10-31T05:28:32;12.63;;;9.43;;
3801;SDS011;1916;51.798;12.246;2022-10-31T05:30:34;13.47;;;9.37;;
3801;SDS011;1916;51.798;12.246;2022-10-31T05:32:41;14.90;;;8.50;;
3801;SDS011;1916;51.798;12.246;2022-10-31T05:35:18;16.10;;;8.80;;
3801;SDS011;1916;51.798;12.246;2022-10-31T05:37:40;18.10;;;8.97;;
3801;SDS011;1916;51.798;12.246;2022-10-31T05:39:42;13.70;;;8.17;;
3801;SDS011;1916;51.798;12.246;2022-10-31T05:41:48;14.50;;;8.53;;
3801;SDS011;1916;51.798;12.246;2022-10-31T05:43:56;14.03;;;8.73;;
3801;SDS011;1916;51.798;12.246;2022-10-31T05:46:02;12.73;;;8.83;;
3801;SDS011;1916;51.798;12.246;2022-10-31T05:48:23;11.00;;;8.07;;
3801;SDS011;1916;51.798;12.246;2022-10-31T05:50:51;9.93;;;8.20;;
3801;SDS011;1916;51.798;12.246;2022-10-31T05:52:57;14.47;;;8.23;;
3801;SDS011;1916;51.798;12.246;2022-10-31T05:55:10;20.03;;;8.90;;
3801;SDS011;1916;51.798;12.246;2022-10-31T05:57:19;17.43;;;9.30;;
3801;SDS011;1916;51.798;12.246;2022-10-31T05:59:22;22.53;;;9.50;;
3801;SDS011;1916;51.798;12.246;2022-10-31T06:01:24;15.70;;;9.60;;
3801;SDS011;1916;51.798;12.246;2022-10-31T06:03:26;18.00;;;9.67;;
3801;SDS011;1916;51.798;12.246;2022-10-31T06:05:32;14.83;;;9.60;;
3801;SDS011;1916;51.798;12.246;2022-10-31T06:07:35;15.80;;;9.60;;
3801;SDS011;1916;51.798;12.246;2022-10-31T06:09:38;16.47;;;10.80;;
3801;SDS011;1916;51.798;12.246;2022-10-31T06:11:41;20.50;;;10.37;;
3801;SDS011;1916;51.798;12.246;2022-10-31T06:13:43;17.33;;;9.63;;
3801;SDS011;1916;51.798;12.246;2022-10-31T06:15:57;17.47;;;9.63;;
3801;SDS011;1916;51.798;12.246;2022-10-31T06:18:06;17.30;;;9.47;;
3801;SDS011;1916;51.798;12.246;2022-10-31T06:20:19;21.50;;;11.00;;
3801;SDS011;1916;51.798;12.246;2022-10-31T06:22:30;17.93;;;9.30;;
3801;SDS011;1916;51.798;12.246;2022-10-31T06:24:32;15.17;;;10.33;;
3801;SDS011;1916;51.798;12.246;2022-10-31T06:26:43;12.07;;;9.03;;
3801;SDS011;1916;51.798;12.246;2022-10-31T06:28:46;20.10;;;10.43;;
3801;SDS011;1916;51.798;12.246;2022-10-31T06:31:00;18.97;;;9.33;;
3801;SDS011;1916;51.798;12.246;2022-10-31T06:33:05;17.47;;;10.20;;
3801;SDS011;1916;51.798;12.246;2022-10-31T06:35:11;15.03;;;9.43;;
3801;SDS011;1916;51.798;12.246;2022-10-31T06:37:15;17.03;;;9.97;;
3801;SDS011;1916;51.798;12.246;2022-10-31T06:39:20;16.90;;;9.90;;
3801;SDS011;1916;51.798;12.246;2022-10-31T06:41:22;16.90;;;10.60;;
3801;SDS011;1916;51.798;12.246;2022-10-31T06:43:26;13.60;;;9.50;;
3801;SDS011;1916;51.798;12.246;2022-10-31T06:45:51;12.23;;;9.40;;
3801;SDS011;1916;51.798;12.246;2022-10-31T06:48:03;16.70;;;10.13;;
3801;SDS011;1916;51.798;12.246;2022-10-31T06:50:38;18.07;;;9.20;;
3801;SDS011;1916;51.798;12.246;2022-10-31T06:52:40;15.20;;;10.27;;
3801;SDS011;1916;51.798;12.246;2022-10-31T06:54:42;19.67;;;10.53;;
3801;SDS011;1916;51.798;12.246;2022-10-31T06:56:47;19.47;;;10.70;;
3801;SDS011;1916;51.798;12.246;2022-10-31T06:58:50;15.43;;;9.93;;
3801;SDS011;1916;51.798;12.246;2022-10-31T07:01:02;20.60;;;11.50;;
3801;SDS011;1916;51.798;12.246;2022-10-31T07:03:05;21.33;;;10.60;;
3801;SDS011;1916;51.798;12.246;2022-10-31T07:05:10;17.57;;;10.10;;
3801;SDS011;1916;51.798;12.246;2022-10-31T07:07:12;20.50;;;10.83;;
3801;SDS011;1916;51.798;12.246;2022-10-31T07:09:14;16.63;;;10.13;;
3801;SDS011;1916;51.798;12.246;2022-10-31T07:11:17;22.87;;;12.07;;
3801;SDS011;1916;51.798;12.246;2022-10-31T07:13:19;23.60;;;11.83;;
3801;SDS011;1916;51.798;12.246;2022-10-31T07:15:33;25.83;;;12.00;;
3801;SDS011;1916;51.798;12.246;2022-10-31T07:17:36;17.20;;;12.00;;
3801;SDS011;1916;51.798;12.246;2022-10-31T07:19:39;18.33;;;11.50;;
3801;SDS011;1916;51.798;12.246;2022-10-31T07:21:42;19.47;;;12.40;;
3801;SDS011;1916;51.798;12.246;2022-10-31T07:23:48;18.43;;;12.57;;
3801;SDS011;1916;51.798;12.246;2022-10-31T07:26:10;21.30;;;13.37;;
3801;SDS011;1916;51.798;12.246;2022-10-31T07:28:17;24.67;;;12.50;;
3801;SDS011;1916;51.798;12.246;2022-10-31T07:30:23;21.30;;;14.00;;
3801;SDS011;1916;51.798;12.246;2022-10-31T07:32:36;17.00;;;12.07;;
3801;SDS011;1916;51.798;12.246;2022-10-31T07:34:42;19.83;;;12.53;;
3801;SDS011;1916;51.798;12.246;2022-10-31T07:36:59;15.30;;;11.60;;
3801;SDS011;1916;51.798;12.246;2022-10-31T07:39:02;18.87;;;11.80;;
3801;SDS011;1916;51.798;12.246;2022-10-31T07:41:06;15.83;;;11.07;;
3801;SDS011;1916;51.798;12.246;2022-10-31T07:43:13;15.87;;;11.57;;
3801;SDS011;1916;51.798;12.246;2022-10-31T07:45:36;17.27;;;10.70;;
3801;SDS011;1916;51.798;12.246;2022-10-31T07:48:17;13.13;;;9.73;;
3801;SDS011;1916;51.798;12.246;2022-10-31T07:50:54;13.27;;;9.30;;
3801;SDS011;1916;51.798;12.246;2022-10-31T07:53:15;17.70;;;10.40;;
3801;SDS011;1916;51.798;12.246;2022-10-31T07:55:36;16.53;;;10.33;;
3801;SDS011;1916;51.798;12.246;2022-10-31T07:57:41;16.70;;;9.87;;
3801;SDS011;1916;51.798;12.246;2022-10-31T07:59:43;14.10;;;9.57;;
3801;SDS011;1916;51.798;12.246;2022-10-31T08:01:45;16.13;;;10.23;;
3801;SDS011;1916;51.798;12.246;2022-10-31T08:04:05;13.57;;;9.13;;
3801;SDS011;1916;51.798;12.246;2022-10-31T08:06:26;14.10;;;9.10;;
3801;SDS011;1916;51.798;12.246;2022-10-31T08:08:44;16.33;;;10.10;;
3801;SDS011;1916;51.798;12.246;2022-10-31T08:10:46;17.33;;;8.60;;
3801;SDS011;1916;51.798;12.246;2022-10-31T08:12:58;12.40;;;10.40;;
3801;SDS011;1916;51.798;12.246;2022-10-31T08:15:02;15.10;;;10.67;;
3801;SDS011;1916;51.798;12.246;2022-10-31T08:17:05;14.10;;;9.90;;
3801;SDS011;1916;51.798;12.246;2022-10-31T08:19:15;18.30;;;10.20;;
3801;SDS011;1916;51.798;12.246;2022-10-31T08:21:18;12.60;;;9.53;;
3801;SDS011;1916;51.798;12.246;2022-10-31T08:23:21;23.03;;;11.83;;
3801;SDS011;1916;51.798;12.246;2022-10-31T08:25:24;15.87;;;11.37;;
3801;SDS011;1916;51.798;12.246;2022-10-31T08:27:27;27.10;;;13.30;;
3801;SDS011;1916;51.798;12.246;2022-10-31T08:29:32;22.23;;;13.37;;
3801;SDS011;1916;51.798;12.246;2022-10-31T08:31:35;27.60;;;14.50;;
3801;SDS011;1916;51.798;12.246;2022-10-31T08:34:01;28.80;;;17.47;;
3801;SDS011;1916;51.798;12.246;2022-10-31T08:36:29;28.37;;;15.80;;
3801;SDS011;1916;51.798;12.246;2022-10-31T08:38:38;32.90;;;16.13;;
3801;SDS011;1916;51.798;12.246;2022-10-31T08:40:43;29.33;;;16.50;;
3801;SDS011;1916;51.798;12.246;2022-10-31T08:42:45;36.80;;;17.13;;
3801;SDS011;1916;51.798;12.246;2022-10-31T08:44:47;31.97;;;16.20;;
3801;SDS011;1916;51.798;12.246;2022-10-31T08:46:49;39.87;;;19.67;;
3801;SDS011;1916;51.798;12.246;2022-10-31T08:48:51;43.27;;;20.53;;
3801;SDS011;1916;51.798;12.246;2022-10-31T08:50:56;41.57;;;19.73;;
3801;SDS011;1916;51.798;12.246;2022-10-31T08:53:04;57.17;;;22.23;;
3801;SDS011;1916;51.798;12.246;2022-10-31T08:55:08;48.67;;;22.50;;
3801;SDS011;1916;51.798;12.246;2022-10-31T08:57:19;50.63;;;23.77;;
3801;SDS011;1916;51.798;12.246;2022-10-31T08:59:22;56.80;;;25.40;;
3801;SDS011;1916;51.798;12.246;2022-10-31T09:01:44;58.83;;;28.47;;
3801;SDS011;1916;51.798;12.246;2022-10-31T09:03:47;77.70;;;29.50;;
3801;SDS011;1916;51.798;12.246;2022-10-31T09:05:49;79.47;;;30.70;;
3801;SDS011;1916;51.798;12.246;2022-10-31T09:07:55;71.13;;;30.97;;
3801;SDS011;1916;51.798;12.246;2022-10-31T09:10:01;73.67;;;31.90;;
3801;SDS011;1916;51.798;12.246;2022-10-31T09:12:06;82.37;;;34.60;;
3801;SDS011;1916;51.798;12.246;2022-10-31T09:14:40;87.17;;;33.37;;
3801;SDS011;1916;51.798;12.246;2022-10-31T09:16:54;71.27;;;32.10;;
3801;SDS011;1916;51.798;12.246;2022-10-31T09:19:04;78.60;;;33.93;;
3801;SDS011;1916;51.798;12.246;2022-10-31T09:21:12;84.17;;;35.83;;
3801;SDS011;1916;51.798;12.246;2022-10-31T09:23:17;91.27;;;36.90;;
3801;SDS011;1916;51.798;12.246;2022-10-31T09:25:23;92.47;;;36.37;;
3801;SDS011;1916;51.798;12.246;2022-10-31T09:27:42;91.13;;;36.43;;
3801;SDS011;1916;51.798;12.246;2022-10-31T09:29:45;90.77;;;37.60;;
3801;SDS011;1916;51.798;12.246;2022-10-31T09:31:47;85.33;;;36.93;;
3801;SDS011;1916;51.798;12.246;2022-10-31T09:34:02;78.87;;;33.53;;
3801;SDS011;1916;51.798;12.246;2022-10-31T09:36:09;70.53;;;33.33;;
3801;SDS011;1916;51.798;12.246;2022-10-31T09:38:15;67.93;;;32.40;;
3801;SDS011;1916;51.798;12.246;2022-10-31T09:40:21;70.27;;;35.20;;
3801;SDS011;1916;51.798;12.246;2022-10-31T09:44:50;70.20;;;33.20;;
3801;SDS011;1916;51.798;12.246;2022-10-31T09:47:10;64.37;;;32.70;;
3801;SDS011;1916;51.798;12.246;2022-10-31T09:49:33;68.03;;;35.80;;
3801;SDS011;1916;51.798;12.246;2022-10-31T09:51:38;59.53;;;31.83;;
3801;SDS011;1916;51.798;12.246;2022-10-31T09:53:58;64.90;;;32.70;;
3801;SDS011;1916;51.798;12.246;2022-10-31T09:56:08;74.70;;;34.20;;
3801;SDS011;1916;51.798;12.246;2022-10-31T09:58:15;82.17;;;34.03;;
3801;SDS011;1916;51.798;12.246;2022-10-31T10:00:21;90.07;;;35.57;;
3801;SDS011;1916;51.798;12.246;2022-10-31T10:02:36;73.43;;;35.00;;
3801;SDS011;1916;51.798;12.246;2022-10-31T10:05:00;88.23;;;37.50;;
3801;SDS011;1916;51.798;12.246;2022-10-31T10:07:12;80.97;;;42.50;;
3801;SDS011;1916;51.798;12.246;2022-10-31T10:09:20;86.97;;;44.13;;
3801;SDS011;1916;51.798;12.246;2022-10-31T10:14:13;111.10;;;62.97;;
3801;SDS011;1916;51.798;12.246;2022-10-31T10:20:56;71.90;;;35.20;;
3801;SDS011;1916;51.798;12.246;2022-10-31T10:25:39;69.70;;;33.90;;
3801;SDS011;1916;51.798;12.246;2022-10-31T10:32:16;83.60;;;41.90;;
3801;SDS011;1916;51.798;12.246;2022-10-31T10:34:27;104.30;;;52.33;;
3801;SDS011;1916;51.798;12.246;2022-10-31T10:39:18;77.77;;;42.23;;
3801;SDS011;1916;51.798;12.246;2022-10-31T10:41:27;56.53;;;31.57;;
3801;SDS011;1916;51.798;12.246;2022-10-31T10:43:36;68.17;;;32.10;;
3801;SDS011;1916;51.798;12.246;2022-10-31T10:45:39;78.43;;;32.63;;
3801;SDS011;1916;51.798;12.246;2022-10-31T10:48:04;59.73;;;30.70;;
3801;SDS011;1916;51.798;12.246;2022-10-31T10:50:22;59.67;;;32.23;;
3801;SDS011;1916;51.798;12.246;2022-10-31T10:57:20;64.80;;;32.80;;
3801;SDS011;1916;51.798;12.246;2022-10-31T10:59:22;65.73;;;32.73;;
3801;SDS011;1916;51.798;12.246;2022-10-31T11:01:24;78.13;;;36.63;;
3801;SDS011;1916;51.798;12.246;2022-10-31T11:03:27;65.97;;;32.80;;
3801;SDS011;1916;51.798;12.246;2022-10-31T11:07:41;71.93;;;36.60;;
3801;SDS011;1916;51.798;12.246;2022-10-31T11:09:43;69.77;;;31.33;;
3801;SDS011;1916;51.798;12.246;2022-10-31T11:11:45;61.13;;;34.50;;
3801;SDS011;1916;51.798;12.246;2022-10-31T11:13:48;159.73;;;106.27;;
3801;SDS011;1916;51.798;12.246;2022-10-31T11:15:53;57.50;;;33.83;;
3801;SDS011;1916;51.798;12.246;2022-10-31T11:17:58;121.63;;;73.97;;
3801;SDS011;1916;51.798;12.246;2022-10-31T11:22:19;72.47;;;31.80;;
3801;SDS011;1916;51.798;12.246;2022-10-31T11:24:22;55.27;;;29.13;;
3801;SDS011;1916;51.798;12.246;2022-10-31T11:26:27;61.87;;;31.53;;
3801;SDS011;1916;51.798;12.246;2022-10-31T11:28:30;59.67;;;30.43;;
3801;SDS011;1916;51.798;12.246;2022-10-31T11:30:44;65.40;;;30.20;;
3801;SDS011;1916;51.798;12.246;2022-10-31T11:32:48;63.80;;;32.83;;
3801;SDS011;1916;51.798;12.246;2022-10-31T11:34:54;58.93;;;32.30;;
3801;SDS011;1916;51.798;12.246;2022-10-31T11:37:01;64.30;;;32.07;;
3801;SDS011;1916;51.798;12.246;2022-10-31T11:39:15;58.13;;;32.60;;
3801;SDS011;1916;51.798;12.246;2022-10-31T11:41:34;58.67;;;32.17;;
3801;SDS011;1916;51.798;12.246;2022-10-31T11:43:44;65.20;;;33.77;;
3801;SDS011;1916;51.798;12.246;2022-10-31T11:45:49;65.93;;;34.73;;
3801;SDS011;1916;51.798;12.246;2022-10-31T11:47:52;72.50;;;39.60;;
3801;SDS011;1916;51.798;12.246;2022-10-31T11:50:01;70.30;;;37.13;;
3801;SDS011;1916;51.798;12.246;2022-10-31T11:52:05;69.33;;;37.03;;
3801;SDS011;1916;51.798;12.246;2022-10-31T11:54:19;66.60;;;33.77;;
3801;SDS011;1916;51.798;12.246;2022-10-31T11:56:40;63.80;;;33.43;;
3801;SDS011;1916;51.798;12.246;2022-10-31T11:58:43;83.30;;;46.10;;
3801;SDS011;1916;51.798;12.246;2022-10-31T12:00:48;63.10;;;38.60;;
3801;SDS011;1916;51.798;12.246;2022-10-31T12:03:04;79.83;;;47.63;;
3801;SDS011;1916;51.798;12.246;2022-10-31T12:05:08;82.07;;;33.10;;
3801;SDS011;1916;51.798;12.246;2022-10-31T12:07:18;70.03;;;37.73;;
3801;SDS011;1916;51.798;12.246;2022-10-31T12:09:21;62.87;;;32.70;;
3801;SDS011;1916;51.798;12.246;2022-10-31T12:13:54;69.73;;;34.60;;
3801;SDS011;1916;51.798;12.246;2022-10-31T12:18:28;63.23;;;32.30;;
3801;SDS011;1916;51.798;12.246;2022-10-31T12:20:58;65.03;;;33.83;;
3801;SDS011;1916;51.798;12.246;2022-10-31T12:23:18;61.70;;;33.00;;
3801;SDS011;1916;51.798;12.246;2022-10-31T12:26:07;58.83;;;32.90;;
3801;SDS011;1916;51.798;12.246;2022-10-31T12:38:23;65.37;;;36.43;;
3801;SDS011;1916;51.798;12.246;2022-10-31T12:45:04;58.90;;;31.77;;
3801;SDS011;1916;51.798;12.246;2022-10-31T12:47:28;61.73;;;33.90;;
3801;SDS011;1916;51.798;12.246;2022-10-31T12:49:42;66.77;;;33.90;;
3801;SDS011;1916;51.798;12.246;2022-10-31T12:54:33;65.83;;;34.87;;
3801;SDS011;1916;51.798;12.246;2022-10-31T13:01:18;75.20;;;36.47;;
3801;SDS011;1916;51.798;12.246;2022-10-31T13:03:32;70.43;;;35.13;;
3801;SDS011;1916;51.798;12.246;2022-10-31T13:05:39;66.87;;;35.30;;
3801;SDS011;1916;51.798;12.246;2022-10-31T13:07:48;58.07;;;32.20;;
3801;SDS011;1916;51.798;12.246;2022-10-31T13:10:01;68.87;;;33.50;;
3801;SDS011;1916;51.798;12.246;2022-10-31T13:12:17;69.63;;;36.30;;
3801;SDS011;1916;51.798;12.246;2022-10-31T13:14:25;68.30;;;36.10;;
3801;SDS011;1916;51.798;12.246;2022-10-31T13:16:39;72.87;;;37.93;;
3801;SDS011;1916;51.798;12.246;2022-10-31T13:18:47;75.93;;;38.43;;
3801;SDS011;1916;51.798;12.246;2022-10-31T13:20:50;83.20;;;38.40;;
3801;SDS011;1916;51.798;12.246;2022-10-31T13:23:00;77.43;;;38.67;;
3801;SDS011;1916;51.798;12.246;2022-10-31T13:25:25;68.23;;;38.47;;
3801;SDS011;1916;51.798;12.246;2022-10-31T13:27:33;62.70;;;35.70;;
3801;SDS011;1916;51.798;12.246;2022-10-31T13:30:06;73.83;;;44.00;;
3801;SDS011;1916;51.798;12.246;2022-10-31T13:32:15;69.90;;;38.77;;
3801;SDS011;1916;51.798;12.246;2022-10-31T13:34:37;77.67;;;40.27;;
3801;SDS011;1916;51.798;12.246;2022-10-31T13:36:42;77.03;;;38.10;;
3801;SDS011;1916;51.798;12.246;2022-10-31T13:38:53;73.73;;;37.97;;
3801;SDS011;1916;51.798;12.246;2022-10-31T13:41:09;74.73;;;38.60;;
3801;SDS011;1916;51.798;12.246;2022-10-31T13:43:35;72.63;;;36.43;;
3801;SDS011;1916;51.798;12.246;2022-10-31T13:45:54;63.70;;;35.60;;
3801;SDS011;1916;51.798;12.246;2022-10-31T13:48:01;76.07;;;37.20;;
3801;SDS011;1916;51.798;12.246;2022-10-31T13:50:25;68.67;;;36.23;;
3801;SDS011;1916;51.798;12.246;2022-10-31T13:52:28;73.60;;;35.47;;
3801;SDS011;1916;51.798;12.246;2022-10-31T13:54:32;75.10;;;37.90;;
3801;SDS011;1916;51.798;12.246;2022-10-31T13:56:35;74.93;;;36.87;;
3801;SDS011;1916;51.798;12.246;2022-10-31T13:58:37;72.10;;;38.53;;
3801;SDS011;1916;51.798;12.246;2022-10-31T14:00:39;76.43;;;40.00;;
3801;SDS011;1916;51.798;12.246;2022-10-31T14:02:44;69.80;;;37.17;;
3801;SDS011;1916;51.798;12.246;2022-10-31T14:04:51;73.90;;;38.07;;
3801;SDS011;1916;51.798;12.246;2022-10-31T14:07:05;98.60;;;41.90;;
3801;SDS011;1916;51.798;12.246;2022-10-31T14:09:22;84.33;;;40.30;;
3801;SDS011;1916;51.798;12.246;2022-10-31T14:11:32;95.50;;;41.90;;